sensor_id;sensor_type;location;lat;lon;timestamp;P1;durP1;ratioP1;P2;durP2;ratioP2
21166;SDS011;10741;52.272;9.580;2023-06-10T00:02:20;10.17;;;5.90;;
21166;SDS011;10741;52.272;9.580;2023-06-10T00:04:46;6.27;;;5.40;;
21166;SDS011;10741;52.272;9.580;2023-06-10T00:07:12;6.97;;;5.13;;
21166;SDS011;10741;52.272;9.580;2023-06-10T00:09:38;8.40;;;5.97;;
21166;SDS011;10741;52.272;9.580;2023-06-10T00:12:04;7.10;;;5.67;;
21166;SDS011;10741;52.272;9.580;2023-06-10T00:14:41;7.40;;;6.07;;
21166;SDS011;10741;52.272;9.580;2023-06-10T00:17:07;8.20;;;5.73;;
21166;SDS011;10741;52.272;9.580;2023-06-10T00:19:36;8.13;;;5.73;;
21166;SDS011;10741;52.272;9.580;2023-06-10T00:22:03;6.20;;;5.50;;
21166;SDS011;10741;52.272;9.580;2023-06-10T00:24:29;7.97;;;5.50;;
21166;SDS011;10741;52.272;9.580;2023-06-10T00:26:55;8.73;;;5.53;;
21166;SDS011;10741;52.272;9.580;2023-06-10T00:29:21;6.70;;;5.07;;
21166;SDS011;10741;52.272;9.580;2023-06-10T00:31:47;6.33;;;5.23;;
21166;SDS011;10741;52.272;9.580;2023-06-10T00:34:12;6.43;;;4.97;;
21166;SDS011;10741;52.272;9.580;2023-06-10T00:36:38;6.70;;;5.40;;
21166;SDS011;10741;52.272;9.580;2023-06-10T00:39:04;8.30;;;5.63;;
21166;SDS011;10741;52.272;9.580;2023-06-10T00:41:30;6.83;;;5.70;;
21166;SDS011;10741;52.272;9.580;2023-06-10T00:43:56;7.63;;;5.07;;
21166;SDS011;10741;52.272;9.580;2023-06-10T00:46:22;8.13;;;5.50;;
21166;SDS011;10741;52.272;9.580;2023-06-10T00:48:50;6.67;;;5.20;;
21166;SDS011;10741;52.272;9.580;2023-06-10T00:51:16;6.50;;;5.17;;
21166;SDS011;10741;52.272;9.580;2023-06-10T00:53:43;5.57;;;5.00;;
21166;SDS011;10741;52.272;9.580;2023-06-10T00:56:09;5.90;;;5.00;;
21166;SDS011;10741;52.272;9.580;2023-06-10T00:58:35;7.73;;;5.40;;
21166;SDS011;10741;52.272;9.580;2023-06-10T01:01:01;5.83;;;5.23;;
21166;SDS011;10741;52.272;9.580;2023-06-10T01:03:29;12.17;;;5.30;;
21166;SDS011;10741;52.272;9.580;2023-06-10T01:06:57;7.87;;;5.23;;
21166;SDS011;10741;52.272;9.580;2023-06-10T01:11:47;8.03;;;5.07;;
21166;SDS011;10741;52.272;9.580;2023-06-10T01:14:25;9.63;;;5.47;;
21166;SDS011;10741;52.272;9.580;2023-06-10T01:16:52;7.33;;;5.10;;
21166;SDS011;10741;52.272;9.580;2023-06-10T01:19:18;8.33;;;5.10;;
21166;SDS011;10741;52.272;9.580;2023-06-10T01:21:43;6.17;;;4.93;;
21166;SDS011;10741;52.272;9.580;2023-06-10T01:24:14;6.77;;;4.70;;
21166;SDS011;10741;52.272;9.580;2023-06-10T01:26:43;6.80;;;5.10;;
21166;SDS011;10741;52.272;9.580;2023-06-10T01:34:12;9.17;;;5.10;;
21166;SDS011;10741;52.272;9.580;2023-06-10T01:36:40;8.77;;;5.37;;
21166;SDS011;10741;52.272;9.580;2023-06-10T01:39:08;7.40;;;5.17;;
21166;SDS011;10741;52.272;9.580;2023-06-10T01:41:36;8.70;;;5.57;;
21166;SDS011;10741;52.272;9.580;2023-06-10T01:44:03;6.80;;;5.30;;
21166;SDS011;10741;52.272;9.580;2023-06-10T01:46:29;5.33;;;4.53;;
21166;SDS011;10741;52.272;9.580;2023-06-10T01:48:55;6.07;;;4.50;;
21166;SDS011;10741;52.272;9.580;2023-06-10T01:51:21;6.50;;;4.73;;
21166;SDS011;10741;52.272;9.580;2023-06-10T01:53:47;7.13;;;5.00;;
21166;SDS011;10741;52.272;9.580;2023-06-10T01:56:13;6.20;;;5.03;;
21166;SDS011;10741;52.272;9.580;2023-06-10T01:58:43;6.50;;;4.87;;
21166;SDS011;10741;52.272;9.580;2023-06-10T02:01:09;7.30;;;5.00;;
21166;SDS011;10741;52.272;9.580;2023-06-10T02:03:35;8.87;;;4.90;;
21166;SDS011;10741;52.272;9.580;2023-06-10T02:06:01;8.40;;;5.27;;
21166;SDS011;10741;52.272;9.580;2023-06-10T02:08:27;5.87;;;4.90;;
21166;SDS011;10741;52.272;9.580;2023-06-10T02:10:53;6.83;;;4.53;;
21166;SDS011;10741;52.272;9.580;2023-06-10T02:13:19;7.43;;;4.70;;
21166;SDS011;10741;52.272;9.580;2023-06-10T02:15:44;6.87;;;4.83;;
21166;SDS011;10741;52.272;9.580;2023-06-10T02:18:10;8.57;;;4.80;;
21166;SDS011;10741;52.272;9.580;2023-06-10T02:20:37;9.30;;;5.17;;
21166;SDS011;10741;52.272;9.580;2023-06-10T02:23:05;7.80;;;4.87;;
21166;SDS011;10741;52.272;9.580;2023-06-10T02:25:31;7.87;;;4.67;;
21166;SDS011;10741;52.272;9.580;2023-06-10T02:27:56;7.27;;;5.07;;
21166;SDS011;10741;52.272;9.580;2023-06-10T02:30:22;8.33;;;4.67;;
21166;SDS011;10741;52.272;9.580;2023-06-10T02:32:48;6.63;;;4.27;;
21166;SDS011;10741;52.272;9.580;2023-06-10T02:35:15;9.87;;;5.20;;
21166;SDS011;10741;52.272;9.580;2023-06-10T02:37:42;6.50;;;4.40;;
21166;SDS011;10741;52.272;9.580;2023-06-10T02:40:09;7.47;;;4.90;;
21166;SDS011;10741;52.272;9.580;2023-06-10T02:42:35;7.40;;;4.87;;
21166;SDS011;10741;52.272;9.580;2023-06-10T02:45:01;6.87;;;5.00;;
21166;SDS011;10741;52.272;9.580;2023-06-10T02:47:27;6.97;;;4.80;;
21166;SDS011;10741;52.272;9.580;2023-06-10T02:49:53;7.13;;;4.73;;
21166;SDS011;10741;52.272;9.580;2023-06-10T02:52:19;6.03;;;4.23;;
21166;SDS011;10741;52.272;9.580;2023-06-10T02:54:45;8.13;;;4.90;;
21166;SDS011;10741;52.272;9.580;2023-06-10T02:57:11;7.70;;;5.10;;
21166;SDS011;10741;52.272;9.580;2023-06-10T02:59:39;9.47;;;4.80;;
21166;SDS011;10741;52.272;9.580;2023-06-10T03:02:05;5.13;;;4.50;;
21166;SDS011;10741;52.272;9.580;2023-06-10T03:04:31;5.87;;;4.20;;
21166;SDS011;10741;52.272;9.580;2023-06-10T03:06:57;5.73;;;4.40;;
21166;SDS011;10741;52.272;9.580;2023-06-10T03:09:22;7.73;;;5.17;;
21166;SDS011;10741;52.272;9.580;2023-06-10T03:11:48;9.47;;;4.80;;
21166;SDS011;10741;52.272;9.580;2023-06-10T03:14:14;7.37;;;4.67;;
21166;SDS011;10741;52.272;9.580;2023-06-10T03:16:40;6.83;;;4.67;;
21166;SDS011;10741;52.272;9.580;2023-06-10T03:19:06;6.00;;;4.60;;
21166;SDS011;10741;52.272;9.580;2023-06-10T03:21:33;6.67;;;4.50;;
21166;SDS011;10741;52.272;9.580;2023-06-10T03:24:02;6.37;;;4.70;;
21166;SDS011;10741;52.272;9.580;2023-06-10T03:26:28;5.27;;;4.47;;
21166;SDS011;10741;52.272;9.580;2023-06-10T03:28:54;7.60;;;4.37;;
21166;SDS011;10741;52.272;9.580;2023-06-10T03:31:20;8.20;;;4.57;;
21166;SDS011;10741;52.272;9.580;2023-06-10T03:33:46;8.70;;;5.20;;
21166;SDS011;10741;52.272;9.580;2023-06-10T03:36:11;7.87;;;5.13;;
21166;SDS011;10741;52.272;9.580;2023-06-10T03:38:37;9.17;;;4.73;;
21166;SDS011;10741;52.272;9.580;2023-06-10T03:41:03;11.13;;;4.80;;
21166;SDS011;10741;52.272;9.580;2023-06-10T03:43:29;9.03;;;5.00;;
21166;SDS011;10741;52.272;9.580;2023-06-10T03:45:56;8.30;;;4.87;;
21166;SDS011;10741;52.272;9.580;2023-06-10T03:48:21;5.83;;;4.50;;
21166;SDS011;10741;52.272;9.580;2023-06-10T03:50:47;5.93;;;4.37;;
21166;SDS011;10741;52.272;9.580;2023-06-10T03:53:15;7.63;;;4.90;;
21166;SDS011;10741;52.272;9.580;2023-06-10T03:55:42;7.90;;;4.73;;
21166;SDS011;10741;52.272;9.580;2023-06-10T03:58:07;8.83;;;5.00;;
21166;SDS011;10741;52.272;9.580;2023-06-10T04:00:33;11.37;;;4.97;;
21166;SDS011;10741;52.272;9.580;2023-06-10T04:03:06;6.77;;;4.63;;
21166;SDS011;10741;52.272;9.580;2023-06-10T04:05:34;8.50;;;4.73;;
21166;SDS011;10741;52.272;9.580;2023-06-10T04:08:00;6.07;;;4.80;;
21166;SDS011;10741;52.272;9.580;2023-06-10T04:10:26;7.23;;;4.80;;
21166;SDS011;10741;52.272;9.580;2023-06-10T04:12:52;10.93;;;5.40;;
21166;SDS011;10741;52.272;9.580;2023-06-10T04:15:19;6.77;;;5.20;;
21166;SDS011;10741;52.272;9.580;2023-06-10T04:17:44;11.30;;;5.77;;
21166;SDS011;10741;52.272;9.580;2023-06-10T04:20:10;8.73;;;5.33;;
21166;SDS011;10741;52.272;9.580;2023-06-10T04:22:36;10.70;;;5.13;;
21166;SDS011;10741;52.272;9.580;2023-06-10T04:25:02;7.37;;;5.47;;
21166;SDS011;10741;52.272;9.580;2023-06-10T04:27:28;9.93;;;5.23;;
21166;SDS011;10741;52.272;9.580;2023-06-10T04:29:54;9.07;;;5.50;;
21166;SDS011;10741;52.272;9.580;2023-06-10T04:32:20;8.53;;;5.50;;
21166;SDS011;10741;52.272;9.580;2023-06-10T04:34:46;8.23;;;5.67;;
21166;SDS011;10741;52.272;9.580;2023-06-10T04:37:12;9.13;;;5.50;;
21166;SDS011;10741;52.272;9.580;2023-06-10T04:39:37;7.27;;;5.40;;
21166;SDS011;10741;52.272;9.580;2023-06-10T04:42:03;10.17;;;5.67;;
21166;SDS011;10741;52.272;9.580;2023-06-10T04:44:30;10.17;;;5.43;;
21166;SDS011;10741;52.272;9.580;2023-06-10T04:46:56;8.43;;;5.33;;
21166;SDS011;10741;52.272;9.580;2023-06-10T04:49:21;7.03;;;4.97;;
21166;SDS011;10741;52.272;9.580;2023-06-10T04:51:47;8.93;;;5.47;;
21166;SDS011;10741;52.272;9.580;2023-06-10T04:54:13;8.17;;;5.27;;
21166;SDS011;10741;52.272;9.580;2023-06-10T04:56:39;10.43;;;5.10;;
21166;SDS011;10741;52.272;9.580;2023-06-10T04:59:04;11.80;;;5.50;;
21166;SDS011;10741;52.272;9.580;2023-06-10T05:01:30;11.00;;;5.83;;
21166;SDS011;10741;52.272;9.580;2023-06-10T05:03:56;10.57;;;5.63;;
21166;SDS011;10741;52.272;9.580;2023-06-10T05:06:22;10.57;;;5.70;;
21166;SDS011;10741;52.272;9.580;2023-06-10T05:08:47;8.57;;;5.63;;
21166;SDS011;10741;52.272;9.580;2023-06-10T05:11:13;8.33;;;5.80;;
21166;SDS011;10741;52.272;9.580;2023-06-10T05:13:39;11.67;;;6.30;;
21166;SDS011;10741;52.272;9.580;2023-06-10T05:16:07;9.03;;;6.10;;
21166;SDS011;10741;52.272;9.580;2023-06-10T05:18:33;7.93;;;6.07;;
21166;SDS011;10741;52.272;9.580;2023-06-10T05:21:00;9.43;;;5.70;;
21166;SDS011;10741;52.272;9.580;2023-06-10T05:23:26;13.10;;;5.87;;
21166;SDS011;10741;52.272;9.580;2023-06-10T05:25:52;10.47;;;7.07;;
21166;SDS011;10741;52.272;9.580;2023-06-10T05:28:17;11.83;;;7.00;;
21166;SDS011;10741;52.272;9.580;2023-06-10T05:30:43;12.07;;;6.77;;
21166;SDS011;10741;52.272;9.580;2023-06-10T05:33:09;11.13;;;7.13;;
21166;SDS011;10741;52.272;9.580;2023-06-10T05:35:34;12.70;;;6.80;;
21166;SDS011;10741;52.272;9.580;2023-06-10T05:38:00;10.10;;;6.33;;
21166;SDS011;10741;52.272;9.580;2023-06-10T05:40:26;13.33;;;7.20;;
21166;SDS011;10741;52.272;9.580;2023-06-10T05:42:51;14.50;;;6.37;;
21166;SDS011;10741;52.272;9.580;2023-06-10T05:45:17;11.93;;;6.60;;
21166;SDS011;10741;52.272;9.580;2023-06-10T05:47:43;9.07;;;6.67;;
21166;SDS011;10741;52.272;9.580;2023-06-10T05:50:09;12.23;;;6.43;;
21166;SDS011;10741;52.272;9.580;2023-06-10T05:52:35;9.73;;;6.53;;
21166;SDS011;10741;52.272;9.580;2023-06-10T05:55:05;11.67;;;6.83;;
21166;SDS011;10741;52.272;9.580;2023-06-10T05:57:31;11.97;;;6.37;;
21166;SDS011;10741;52.272;9.580;2023-06-10T05:59:56;12.53;;;7.20;;
21166;SDS011;10741;52.272;9.580;2023-06-10T06:02:22;10.53;;;6.33;;
21166;SDS011;10741;52.272;9.580;2023-06-10T06:04:48;12.63;;;6.27;;
21166;SDS011;10741;52.272;9.580;2023-06-10T06:07:14;12.80;;;6.40;;
21166;SDS011;10741;52.272;9.580;2023-06-10T06:09:39;11.47;;;6.27;;
21166;SDS011;10741;52.272;9.580;2023-06-10T06:12:05;8.93;;;6.27;;
21166;SDS011;10741;52.272;9.580;2023-06-10T06:14:32;11.00;;;6.10;;
21166;SDS011;10741;52.272;9.580;2023-06-10T06:17:01;8.37;;;5.73;;
21166;SDS011;10741;52.272;9.580;2023-06-10T06:19:27;10.63;;;6.80;;
21166;SDS011;10741;52.272;9.580;2023-06-10T06:21:53;13.57;;;5.97;;
21166;SDS011;10741;52.272;9.580;2023-06-10T06:24:19;7.60;;;5.63;;
21166;SDS011;10741;52.272;9.580;2023-06-10T06:26:45;11.83;;;6.43;;
21166;SDS011;10741;52.272;9.580;2023-06-10T06:29:10;14.77;;;6.40;;
21166;SDS011;10741;52.272;9.580;2023-06-10T06:31:36;9.97;;;6.00;;
21166;SDS011;10741;52.272;9.580;2023-06-10T06:34:02;12.57;;;6.53;;
21166;SDS011;10741;52.272;9.580;2023-06-10T06:36:28;8.83;;;6.30;;
21166;SDS011;10741;52.272;9.580;2023-06-10T06:38:53;11.20;;;6.13;;
21166;SDS011;10741;52.272;9.580;2023-06-10T06:41:19;9.93;;;6.00;;
21166;SDS011;10741;52.272;9.580;2023-06-10T06:43:46;8.60;;;6.00;;
21166;SDS011;10741;52.272;9.580;2023-06-10T06:46:12;9.33;;;5.50;;
21166;SDS011;10741;52.272;9.580;2023-06-10T06:48:38;9.30;;;6.00;;
21166;SDS011;10741;52.272;9.580;2023-06-10T06:51:04;9.37;;;5.97;;
21166;SDS011;10741;52.272;9.580;2023-06-10T06:53:30;9.17;;;5.73;;
21166;SDS011;10741;52.272;9.580;2023-06-10T06:55:56;12.17;;;6.40;;
21166;SDS011;10741;52.272;9.580;2023-06-10T06:58:21;12.03;;;6.10;;
21166;SDS011;10741;52.272;9.580;2023-06-10T07:00:47;7.20;;;5.77;;
21166;SDS011;10741;52.272;9.580;2023-06-10T07:03:13;10.50;;;5.83;;
21166;SDS011;10741;52.272;9.580;2023-06-10T07:05:39;11.80;;;6.63;;
21166;SDS011;10741;52.272;9.580;2023-06-10T07:08:04;11.03;;;7.30;;
21166;SDS011;10741;52.272;9.580;2023-06-10T07:10:30;11.70;;;6.33;;
21166;SDS011;10741;52.272;9.580;2023-06-10T07:12:56;13.33;;;6.90;;
21166;SDS011;10741;52.272;9.580;2023-06-10T07:15:22;10.17;;;6.30;;
21166;SDS011;10741;52.272;9.580;2023-06-10T07:17:47;9.50;;;5.97;;
21166;SDS011;10741;52.272;9.580;2023-06-10T07:20:14;10.47;;;6.60;;
21166;SDS011;10741;52.272;9.580;2023-06-10T07:22:41;9.43;;;6.63;;
21166;SDS011;10741;52.272;9.580;2023-06-10T07:25:07;13.07;;;6.90;;
21166;SDS011;10741;52.272;9.580;2023-06-10T07:27:33;10.30;;;6.30;;
21166;SDS011;10741;52.272;9.580;2023-06-10T07:30:01;11.00;;;6.50;;
21166;SDS011;10741;52.272;9.580;2023-06-10T07:32:27;13.63;;;6.87;;
21166;SDS011;10741;52.272;9.580;2023-06-10T07:34:52;10.50;;;6.63;;
21166;SDS011;10741;52.272;9.580;2023-06-10T07:37:18;12.53;;;6.37;;
21166;SDS011;10741;52.272;9.580;2023-06-10T07:39:44;9.93;;;6.27;;
21166;SDS011;10741;52.272;9.580;2023-06-10T07:42:10;11.60;;;6.47;;
21166;SDS011;10741;52.272;9.580;2023-06-10T07:44:36;13.43;;;6.67;;
21166;SDS011;10741;52.272;9.580;2023-06-10T07:47:02;9.13;;;6.10;;
21166;SDS011;10741;52.272;9.580;2023-06-10T07:49:28;12.63;;;6.80;;
21166;SDS011;10741;52.272;9.580;2023-06-10T07:51:54;9.50;;;6.77;;
21166;SDS011;10741;52.272;9.580;2023-06-10T07:54:22;11.43;;;7.33;;
21166;SDS011;10741;52.272;9.580;2023-06-10T07:56:48;14.37;;;7.13;;
21166;SDS011;10741;52.272;9.580;2023-06-10T07:59:14;14.07;;;6.53;;
21166;SDS011;10741;52.272;9.580;2023-06-10T08:01:40;11.13;;;6.47;;
21166;SDS011;10741;52.272;9.580;2023-06-10T08:04:05;10.57;;;6.97;;
21166;SDS011;10741;52.272;9.580;2023-06-10T08:06:31;10.83;;;6.93;;
21166;SDS011;10741;52.272;9.580;2023-06-10T08:08:57;11.13;;;6.63;;
21166;SDS011;10741;52.272;9.580;2023-06-10T08:11:23;17.07;;;7.50;;
21166;SDS011;10741;52.272;9.580;2023-06-10T08:13:49;12.13;;;7.50;;
21166;SDS011;10741;52.272;9.580;2023-06-10T08:16:16;11.73;;;6.47;;
21166;SDS011;10741;52.272;9.580;2023-06-10T08:18:41;8.23;;;6.90;;
21166;SDS011;10741;52.272;9.580;2023-06-10T08:21:07;9.80;;;6.60;;
21166;SDS011;10741;52.272;9.580;2023-06-10T08:23:33;13.00;;;6.93;;
21166;SDS011;10741;52.272;9.580;2023-06-10T08:25:59;10.57;;;6.37;;
21166;SDS011;10741;52.272;9.580;2023-06-10T08:28:24;10.93;;;6.33;;
21166;SDS011;10741;52.272;9.580;2023-06-10T08:30:50;10.70;;;6.70;;
21166;SDS011;10741;52.272;9.580;2023-06-10T08:33:16;10.80;;;6.80;;
21166;SDS011;10741;52.272;9.580;2023-06-10T08:35:41;10.83;;;6.80;;
21166;SDS011;10741;52.272;9.580;2023-06-10T08:38:07;14.83;;;6.80;;
21166;SDS011;10741;52.272;9.580;2023-06-10T08:40:33;13.57;;;6.40;;
21166;SDS011;10741;52.272;9.580;2023-06-10T08:43:05;11.67;;;7.43;;
21166;SDS011;10741;52.272;9.580;2023-06-10T08:45:34;11.70;;;7.10;;
21166;SDS011;10741;52.272;9.580;2023-06-10T08:48:02;9.90;;;5.57;;
21166;SDS011;10741;52.272;9.580;2023-06-10T08:50:32;12.00;;;6.23;;
21166;SDS011;10741;52.272;9.580;2023-06-10T08:53:01;9.87;;;5.77;;
21166;SDS011;10741;52.272;9.580;2023-06-10T08:55:38;8.20;;;5.87;;
21166;SDS011;10741;52.272;9.580;2023-06-10T08:58:07;13.30;;;6.40;;
21166;SDS011;10741;52.272;9.580;2023-06-10T09:00:33;11.27;;;5.83;;
21166;SDS011;10741;52.272;9.580;2023-06-10T09:03:00;9.83;;;5.67;;
21166;SDS011;10741;52.272;9.580;2023-06-10T09:05:28;7.60;;;5.40;;
21166;SDS011;10741;52.272;9.580;2023-06-10T09:07:54;12.43;;;6.43;;
21166;SDS011;10741;52.272;9.580;2023-06-10T09:10:22;7.00;;;5.23;;
21166;SDS011;10741;52.272;9.580;2023-06-10T09:12:48;7.63;;;5.00;;
21166;SDS011;10741;52.272;9.580;2023-06-10T09:15:13;6.97;;;5.57;;
21166;SDS011;10741;52.272;9.580;2023-06-10T09:17:42;8.07;;;5.90;;
21166;SDS011;10741;52.272;9.580;2023-06-10T09:20:08;10.10;;;6.87;;
21166;SDS011;10741;52.272;9.580;2023-06-10T09:22:34;8.03;;;6.03;;
21166;SDS011;10741;52.272;9.580;2023-06-10T09:27:30;7.07;;;4.90;;
21166;SDS011;10741;52.272;9.580;2023-06-10T09:29:59;7.47;;;5.40;;
21166;SDS011;10741;52.272;9.580;2023-06-10T09:32:25;7.00;;;5.40;;
21166;SDS011;10741;52.272;9.580;2023-06-10T09:34:52;10.20;;;6.23;;
21166;SDS011;10741;52.272;9.580;2023-06-10T09:37:21;9.37;;;5.10;;
21166;SDS011;10741;52.272;9.580;2023-06-10T09:40:04;7.47;;;4.87;;
21166;SDS011;10741;52.272;9.580;2023-06-10T09:42:38;7.27;;;4.70;;
21166;SDS011;10741;52.272;9.580;2023-06-10T09:45:04;7.50;;;5.30;;
21166;SDS011;10741;52.272;9.580;2023-06-10T09:47:31;7.37;;;4.50;;
21166;SDS011;10741;52.272;9.580;2023-06-10T09:49:56;5.60;;;4.27;;
21166;SDS011;10741;52.272;9.580;2023-06-10T09:52:26;7.80;;;4.87;;
21166;SDS011;10741;52.272;9.580;2023-06-10T09:54:53;9.63;;;5.23;;
21166;SDS011;10741;52.272;9.580;2023-06-10T09:57:25;8.53;;;5.13;;
21166;SDS011;10741;52.272;9.580;2023-06-10T09:59:54;9.03;;;5.07;;
21166;SDS011;10741;52.272;9.580;2023-06-10T10:02:20;8.63;;;4.90;;
21166;SDS011;10741;52.272;9.580;2023-06-10T10:04:46;7.53;;;4.30;;
21166;SDS011;10741;52.272;9.580;2023-06-10T10:07:12;5.87;;;4.37;;
21166;SDS011;10741;52.272;9.580;2023-06-10T10:09:38;7.67;;;4.50;;
21166;SDS011;10741;52.272;9.580;2023-06-10T10:12:07;5.33;;;4.57;;
21166;SDS011;10741;52.272;9.580;2023-06-10T10:14:36;5.83;;;4.33;;
21166;SDS011;10741;52.272;9.580;2023-06-10T10:17:04;5.93;;;4.47;;
21166;SDS011;10741;52.272;9.580;2023-06-10T10:19:36;7.10;;;4.40;;
21166;SDS011;10741;52.272;9.580;2023-06-10T10:22:14;6.37;;;4.87;;
21166;SDS011;10741;52.272;9.580;2023-06-10T10:24:52;8.37;;;4.80;;
21166;SDS011;10741;52.272;9.580;2023-06-10T10:27:21;10.50;;;4.40;;
21166;SDS011;10741;52.272;9.580;2023-06-10T10:30:14;7.10;;;4.50;;
21166;SDS011;10741;52.272;9.580;2023-06-10T10:32:43;8.30;;;4.60;;
21166;SDS011;10741;52.272;9.580;2023-06-10T10:35:22;7.70;;;4.60;;
21166;SDS011;10741;52.272;9.580;2023-06-10T10:37:49;8.77;;;5.20;;
21166;SDS011;10741;52.272;9.580;2023-06-10T10:40:19;8.80;;;4.73;;
21166;SDS011;10741;52.272;9.580;2023-06-10T10:42:50;5.40;;;4.53;;
21166;SDS011;10741;52.272;9.580;2023-06-10T10:45:16;6.63;;;4.70;;
21166;SDS011;10741;52.272;9.580;2023-06-10T10:47:43;7.95;;;4.55;;
21166;SDS011;10741;52.272;9.580;2023-06-10T10:50:14;6.45;;;4.78;;
21166;SDS011;10741;52.272;9.580;2023-06-10T10:52:58;6.53;;;4.70;;
21166;SDS011;10741;52.272;9.580;2023-06-10T10:55:27;8.88;;;5.10;;
21166;SDS011;10741;52.272;9.580;2023-06-10T10:57:57;6.40;;;4.85;;
21166;SDS011;10741;52.272;9.580;2023-06-10T11:00:33;8.05;;;5.40;;
21166;SDS011;10741;52.272;9.580;2023-06-10T11:05:35;10.45;;;5.40;;
21166;SDS011;10741;52.272;9.580;2023-06-10T11:08:03;7.60;;;5.07;;
21166;SDS011;10741;52.272;9.580;2023-06-10T11:10:31;9.80;;;5.73;;
21166;SDS011;10741;52.272;9.580;2023-06-10T11:12:59;6.75;;;5.53;;
21166;SDS011;10741;52.272;9.580;2023-06-10T11:15:28;7.68;;;5.68;;
21166;SDS011;10741;52.272;9.580;2023-06-10T11:18:11;7.72;;;5.45;;
21166;SDS011;10741;52.272;9.580;2023-06-10T11:21:03;6.57;;;4.57;;
21166;SDS011;10741;52.272;9.580;2023-06-10T11:23:32;7.55;;;5.40;;
21166;SDS011;10741;52.272;9.580;2023-06-10T11:26:09;6.03;;;5.20;;
21166;SDS011;10741;52.272;9.580;2023-06-10T11:28:38;8.18;;;4.68;;
21166;SDS011;10741;52.272;9.580;2023-06-10T11:31:04;5.72;;;5.20;;
21166;SDS011;10741;52.272;9.580;2023-06-10T11:33:31;6.97;;;5.18;;
21166;SDS011;10741;52.272;9.580;2023-06-10T11:35:57;7.93;;;5.00;;
21166;SDS011;10741;52.272;9.580;2023-06-10T11:38:23;7.85;;;5.32;;
21166;SDS011;10741;52.272;9.580;2023-06-10T11:40:50;5.97;;;5.00;;
21166;SDS011;10741;52.272;9.580;2023-06-10T11:43:19;8.63;;;5.57;;
21166;SDS011;10741;52.272;9.580;2023-06-10T11:45:45;6.43;;;5.07;;
21166;SDS011;10741;52.272;9.580;2023-06-10T11:48:12;7.35;;;5.40;;
21166;SDS011;10741;52.272;9.580;2023-06-10T11:50:38;8.10;;;5.28;;
21166;SDS011;10741;52.272;9.580;2023-06-10T11:53:04;6.63;;;5.15;;
21166;SDS011;10741;52.272;9.580;2023-06-10T11:55:40;9.43;;;5.43;;
21166;SDS011;10741;52.272;9.580;2023-06-10T11:58:15;5.53;;;4.95;;
21166;SDS011;10741;52.272;9.580;2023-06-10T12:00:43;7.40;;;5.35;;
21166;SDS011;10741;52.272;9.580;2023-06-10T12:03:19;7.57;;;5.28;;
21166;SDS011;10741;52.272;9.580;2023-06-10T12:08:21;8.55;;;5.30;;
21166;SDS011;10741;52.272;9.580;2023-06-10T12:10:48;7.20;;;5.45;;
21166;SDS011;10741;52.272;9.580;2023-06-10T12:13:14;6.00;;;5.07;;
21166;SDS011;10741;52.272;9.580;2023-06-10T12:15:39;8.15;;;5.60;;
21166;SDS011;10741;52.272;9.580;2023-06-10T12:18:05;6.15;;;4.97;;
21166;SDS011;10741;52.272;9.580;2023-06-10T12:20:32;6.07;;;4.95;;
21166;SDS011;10741;52.272;9.580;2023-06-10T12:23:08;7.20;;;5.53;;
21166;SDS011;10741;52.272;9.580;2023-06-10T12:25:35;7.30;;;5.65;;
21166;SDS011;10741;52.272;9.580;2023-06-10T12:28:02;7.13;;;5.60;;
21166;SDS011;10741;52.272;9.580;2023-06-10T12:30:28;6.97;;;5.38;;
21166;SDS011;10741;52.272;9.580;2023-06-10T12:32:54;8.45;;;5.40;;
21166;SDS011;10741;52.272;9.580;2023-06-10T12:35:21;7.03;;;5.65;;
21166;SDS011;10741;52.272;9.580;2023-06-10T12:37:58;8.38;;;5.63;;
21166;SDS011;10741;52.272;9.580;2023-06-10T12:40:33;6.65;;;5.90;;
21166;SDS011;10741;52.272;9.580;2023-06-10T12:43:01;8.18;;;5.28;;
21166;SDS011;10741;52.272;9.580;2023-06-10T12:45:27;7.97;;;5.07;;
21166;SDS011;10741;52.272;9.580;2023-06-10T12:50:35;7.35;;;5.65;;
21166;SDS011;10741;52.272;9.580;2023-06-10T12:53:02;8.30;;;5.53;;
21166;SDS011;10741;52.272;9.580;2023-06-10T12:55:28;10.30;;;5.65;;
21166;SDS011;10741;52.272;9.580;2023-06-10T12:57:54;8.05;;;5.88;;
21166;SDS011;10741;52.272;9.580;2023-06-10T13:00:21;9.88;;;5.72;;
21166;SDS011;10741;52.272;9.580;2023-06-10T13:02:50;10.45;;;5.80;;
21166;SDS011;10741;52.272;9.580;2023-06-10T13:05:16;9.90;;;5.93;;
21166;SDS011;10741;52.272;9.580;2023-06-10T13:07:43;6.90;;;5.45;;
21166;SDS011;10741;52.272;9.580;2023-06-10T13:10:09;7.93;;;6.07;;
21166;SDS011;10741;52.272;9.580;2023-06-10T13:12:35;8.82;;;5.88;;
21166;SDS011;10741;52.272;9.580;2023-06-10T13:15:02;9.43;;;6.10;;
21166;SDS011;10741;52.272;9.580;2023-06-10T13:17:29;8.10;;;5.82;;
21166;SDS011;10741;52.272;9.580;2023-06-10T13:19:54;6.68;;;5.80;;
21166;SDS011;10741;52.272;9.580;2023-06-10T13:22:20;11.60;;;6.03;;
21166;SDS011;10741;52.272;9.580;2023-06-10T13:24:46;5.78;;;5.25;;
21166;SDS011;10741;52.272;9.580;2023-06-10T13:27:12;7.03;;;5.77;;
21166;SDS011;10741;52.272;9.580;2023-06-10T13:29:39;7.43;;;5.63;;
21166;SDS011;10741;52.272;9.580;2023-06-10T13:32:05;8.13;;;5.90;;
21166;SDS011;10741;52.272;9.580;2023-06-10T13:34:31;8.60;;;6.00;;
21166;SDS011;10741;52.272;9.580;2023-06-10T13:36:57;8.23;;;5.60;;
21166;SDS011;10741;52.272;9.580;2023-06-10T13:39:23;8.83;;;5.60;;
21166;SDS011;10741;52.272;9.580;2023-06-10T13:41:49;9.93;;;6.03;;
21166;SDS011;10741;52.272;9.580;2023-06-10T13:44:14;7.53;;;6.13;;
21166;SDS011;10741;52.272;9.580;2023-06-10T13:46:40;6.40;;;5.77;;
21166;SDS011;10741;52.272;9.580;2023-06-10T13:49:06;10.77;;;6.13;;
21166;SDS011;10741;52.272;9.580;2023-06-10T13:51:31;7.30;;;6.50;;
21166;SDS011;10741;52.272;9.580;2023-06-10T13:53:57;9.07;;;5.77;;
21166;SDS011;10741;52.272;9.580;2023-06-10T13:56:23;6.83;;;6.10;;
21166;SDS011;10741;52.272;9.580;2023-06-10T13:58:49;7.83;;;6.03;;
21166;SDS011;10741;52.272;9.580;2023-06-10T14:01:14;8.57;;;6.13;;
21166;SDS011;10741;52.272;9.580;2023-06-10T14:03:40;7.80;;;5.60;;
21166;SDS011;10741;52.272;9.580;2023-06-10T14:06:06;7.90;;;6.07;;
21166;SDS011;10741;52.272;9.580;2023-06-10T14:08:32;7.00;;;5.70;;
21166;SDS011;10741;52.272;9.580;2023-06-10T14:10:58;6.90;;;5.70;;
21166;SDS011;10741;52.272;9.580;2023-06-10T14:13:24;10.13;;;6.30;;
21166;SDS011;10741;52.272;9.580;2023-06-10T14:15:49;9.53;;;6.23;;
21166;SDS011;10741;52.272;9.580;2023-06-10T14:18:15;6.27;;;5.67;;
21166;SDS011;10741;52.272;9.580;2023-06-10T14:20:41;8.70;;;5.77;;
21166;SDS011;10741;52.272;9.580;2023-06-10T14:23:07;7.17;;;5.90;;
21166;SDS011;10741;52.272;9.580;2023-06-10T14:25:32;10.17;;;6.10;;
21166;SDS011;10741;52.272;9.580;2023-06-10T14:27:58;8.47;;;5.43;;
21166;SDS011;10741;52.272;9.580;2023-06-10T14:30:24;7.00;;;5.53;;
21166;SDS011;10741;52.272;9.580;2023-06-10T14:32:49;11.00;;;5.63;;
21166;SDS011;10741;52.272;9.580;2023-06-10T14:35:15;13.00;;;6.10;;
21166;SDS011;10741;52.272;9.580;2023-06-10T14:37:41;7.43;;;5.27;;
21166;SDS011;10741;52.272;9.580;2023-06-10T14:40:07;8.27;;;5.70;;
21166;SDS011;10741;52.272;9.580;2023-06-10T14:42:33;7.83;;;5.20;;
21166;SDS011;10741;52.272;9.580;2023-06-10T14:44:59;9.47;;;5.60;;
21166;SDS011;10741;52.272;9.580;2023-06-10T14:47:25;6.97;;;5.63;;
21166;SDS011;10741;52.272;9.580;2023-06-10T14:49:51;9.37;;;5.77;;
21166;SDS011;10741;52.272;9.580;2023-06-10T14:52:16;8.80;;;6.13;;
21166;SDS011;10741;52.272;9.580;2023-06-10T14:54:42;6.83;;;5.70;;
21166;SDS011;10741;52.272;9.580;2023-06-10T14:57:08;6.63;;;5.53;;
21166;SDS011;10741;52.272;9.580;2023-06-10T14:59:33;6.83;;;5.20;;
21166;SDS011;10741;52.272;9.580;2023-06-10T15:02:00;8.30;;;5.70;;